createdAt,value
2019-01-26T00:00:33.118Z,61.20
2019-01-26T00:03:05.285Z,62.46
2019-01-26T00:05:37.070Z,62.17
2019-01-26T00:08:20.609Z,61.68
2019-01-26T00:10:52.517Z,61.68
2019-01-26T00:13:24.215Z,60.81
2019-01-26T00:15:56.133Z,61.93
2019-01-26T00:18:27.740Z,61.23
2019-01-26T00:20:59.327Z,62.82
2019-01-26T00:23:30.940Z,62.59
2019-01-26T00:26:02.713Z,62.75
2019-01-26T00:28:34.325Z,63.56
2019-01-26T00:31:06.135Z,63.30
2019-01-26T00:33:37.752Z,64.07
2019-01-26T00:36:09.358Z,63.59
2019-01-26T00:38:40.946Z,62.69
2019-01-26T00:41:12.913Z,62.50
2019-01-26T00:43:44.531Z,63.13
2019-01-26T00:46:16.679Z,63.01
2019-01-26T00:48:48.265Z,62.49
2019-01-26T00:51:19.867Z,62.19
2019-01-26T00:53:51.572Z,62.14
2019-01-26T00:56:23.545Z,61.30
2019-01-26T00:58:55.184Z,61.14
2019-01-26T01:01:26.832Z,61.86
2019-01-26T01:03:58.818Z,62.30
2019-01-26T01:06:30.486Z,61.82
2019-01-26T01:09:02.237Z,62.08
2019-01-26T01:11:36.179Z,62.16
2019-01-26T01:14:07.813Z,62.54
2019-01-26T01:16:40.495Z,62.66
2019-01-26T01:19:12.581Z,62.79
2019-01-26T01:21:44.243Z,63.05
2019-01-26T01:24:16.497Z,62.84
2019-01-26T01:26:48.335Z,62.15
2019-01-26T01:29:19.914Z,62.66
2019-01-26T01:31:51.589Z,62.55
2019-01-26T01:34:23.582Z,62.04
2019-01-26T01:36:55.183Z,62.42
2019-01-26T01:39:26.965Z,62.84
2019-01-26T01:41:59.381Z,62.30
2019-01-26T01:44:31.165Z,62.11
2019-01-26T01:47:05.899Z,62.90
2019-01-26T01:49:37.962Z,63.60
2019-01-26T01:52:09.564Z,63.90
2019-01-26T01:54:41.246Z,63.20
2019-01-26T01:57:14.143Z,63.15
2019-01-26T01:59:45.726Z,62.89
2019-01-26T02:02:17.332Z,62.61
2019-01-26T02:04:48.941Z,62.52
2019-01-26T02:07:29.668Z,62.60
2019-01-26T02:10:12.264Z,63.09
2019-01-26T02:12:46.903Z,62.88
2019-01-26T02:15:18.648Z,63.56
2019-01-26T02:17:50.268Z,62.73
2019-01-26T02:20:22.924Z,63.01
2019-01-26T02:22:54.507Z,62.73
2019-01-26T02:25:26.102Z,63.33
2019-01-26T02:27:59.029Z,61.97
2019-01-26T02:30:30.645Z,62.10
2019-01-26T02:33:02.254Z,61.96
2019-01-26T02:35:35.604Z,61.41
2019-01-26T02:38:07.357Z,62.58
2019-01-26T02:40:38.962Z,63.14
2019-01-26T02:43:10.568Z,62.84
2019-01-26T02:45:42.160Z,62.51
2019-01-26T02:48:13.847Z,62.54
2019-01-26T02:50:45.491Z,62.80
2019-01-26T02:53:18.155Z,62.59
2019-01-26T02:55:49.735Z,61.96
2019-01-26T02:58:21.339Z,62.85
2019-01-26T03:00:53.527Z,63.18
2019-01-26T03:03:25.159Z,62.38
2019-01-26T03:05:57.558Z,63.04
2019-01-26T03:08:29.231Z,62.95
2019-01-26T03:11:00.942Z,62.66
2019-01-26T03:13:32.526Z,62.88
2019-01-26T03:16:04.841Z,62.48
2019-01-26T03:18:36.451Z,62.55
2019-01-26T03:21:08.133Z,61.55
2019-01-26T03:23:39.919Z,62.19
2019-01-26T03:26:11.520Z,61.71
2019-01-26T03:28:43.117Z,61.33
2019-01-26T03:31:14.709Z,61.49
2019-01-26T03:33:46.408Z,63.02
2019-01-26T03:36:18.897Z,63.94
2019-01-26T03:38:50.724Z,62.79
2019-01-26T03:41:22.339Z,62.82
2019-01-26T03:43:55.012Z,62.00
2019-01-26T03:46:26.673Z,62.03
2019-01-26T03:48:58.276Z,62.58
2019-01-26T03:51:29.876Z,62.19
2019-01-26T03:54:01.554Z,61.72
2019-01-26T03:56:33.143Z,61.61
2019-01-26T03:59:05.371Z,62.11
2019-01-26T04:01:37.015Z,62.45
2019-01-26T04:04:08.621Z,63.17
2019-01-26T04:06:40.262Z,62.43
2019-01-26T04:09:11.864Z,62.57
2019-01-26T04:11:43.533Z,63.05
2019-01-26T04:14:15.318Z,61.84
2019-01-26T04:16:46.907Z,63.33
2019-01-26T04:19:18.556Z,63.60
2019-01-26T04:21:58.811Z,64.82
2019-01-26T04:24:32.729Z,64.54
2019-01-26T04:27:04.339Z,64.90
2019-01-26T04:29:35.932Z,65.52
2019-01-26T04:32:07.553Z,65.42
2019-01-26T04:34:39.292Z,64.95
2019-01-26T04:37:10.910Z,65.01
2019-01-26T04:39:42.484Z,64.56
2019-01-26T04:42:14.103Z,64.96
2019-01-26T04:44:45.712Z,65.08
2019-01-26T04:47:17.294Z,65.97
2019-01-26T04:49:48.996Z,66.76
2019-01-26T04:52:21.134Z,65.38
2019-01-26T04:54:52.812Z,64.50
2019-01-26T04:57:24.427Z,63.72
2019-01-26T04:59:56.086Z,63.73
2019-01-26T05:02:27.685Z,63.37
2019-01-26T05:04:59.289Z,62.87
2019-01-26T05:07:30.904Z,63.21
2019-01-26T05:10:02.520Z,64.00
2019-01-26T05:12:34.125Z,64.51
2019-01-26T05:15:10.149Z,64.43
2019-01-26T05:17:41.756Z,64.12
2019-01-26T05:20:23.376Z,63.49
2019-01-26T05:22:55.009Z,63.65
2019-01-26T05:25:26.616Z,65.22
2019-01-26T05:27:58.380Z,65.65
2019-01-26T05:30:29.997Z,67.96
2019-01-26T05:33:01.600Z,69.33
2019-01-26T05:35:33.224Z,67.71
2019-01-26T05:38:04.826Z,66.32
2019-01-26T05:40:36.428Z,65.62
2019-01-26T05:43:09.111Z,65.95
2019-01-26T05:45:41.027Z,65.78
2019-01-26T05:48:12.638Z,65.56
2019-01-26T05:50:44.253Z,65.55
2019-01-26T05:53:15.952Z,67.08
2019-01-26T05:55:47.594Z,67.65
2019-01-26T05:58:19.161Z,66.58
2019-01-26T06:00:50.762Z,66.27
2019-01-26T06:03:22.438Z,66.00
2019-01-26T06:05:54.141Z,65.94
2019-01-26T06:08:25.788Z,65.83
2019-01-26T06:10:57.384Z,65.74
2019-01-26T06:13:28.986Z,65.50
2019-01-26T06:16:00.629Z,65.58
2019-01-26T06:18:32.210Z,65.46
2019-01-26T06:21:04.592Z,65.51
2019-01-26T06:23:36.250Z,65.34
2019-01-26T06:26:07.849Z,66.47
2019-01-26T06:28:39.470Z,68.30
2019-01-26T06:31:11.389Z,68.97
2019-01-26T06:33:43.005Z,68.59
2019-01-26T06:36:14.684Z,67.67
2019-01-26T06:38:46.394Z,66.75
2019-01-26T06:41:17.999Z,66.18
2019-01-26T06:43:49.676Z,66.30
2019-01-26T06:46:21.267Z,66.28
2019-01-26T06:48:54.505Z,66.38
2019-01-26T06:51:26.105Z,66.67
2019-01-26T06:53:57.691Z,66.73
2019-01-26T06:56:29.290Z,66.94
2019-01-26T06:59:00.899Z,66.79
2019-01-26T07:01:32.669Z,66.94
2019-01-26T07:04:04.868Z,66.88
2019-01-26T07:06:38.963Z,66.51
2019-01-26T07:09:10.585Z,66.33
2019-01-26T07:11:42.344Z,66.69
2019-01-26T07:14:14.211Z,66.70
2019-01-26T07:16:45.806Z,66.91
2019-01-26T07:19:17.657Z,67.40
2019-01-26T07:21:49.390Z,67.24
2019-01-26T07:24:20.994Z,67.05
2019-01-26T07:26:52.635Z,66.74
2019-01-26T07:29:24.225Z,66.87
2019-01-26T07:31:57.458Z,67.17
2019-01-26T07:34:30.717Z,67.17
2019-01-26T07:37:02.483Z,67.38
2019-01-26T07:39:34.085Z,67.23
2019-01-26T07:42:05.655Z,67.20
2019-01-26T07:44:41.481Z,67.03
2019-01-26T07:47:13.339Z,67.20
2019-01-26T07:49:45.024Z,67.27
2019-01-26T07:52:16.665Z,67.20
2019-01-26T07:54:48.823Z,66.89
2019-01-26T07:57:20.432Z,67.89
2019-01-26T07:59:52.673Z,67.41
2019-01-26T08:02:24.265Z,66.89
2019-01-26T08:04:55.861Z,67.38
2019-01-26T08:07:28.645Z,67.05
2019-01-26T08:10:00.336Z,67.37
2019-01-26T08:12:31.938Z,67.06
2019-01-26T08:15:04.583Z,66.80
2019-01-26T08:17:36.426Z,66.81
2019-01-26T08:20:17.478Z,66.89
2019-01-26T08:22:49.089Z,66.45
2019-01-26T08:25:20.751Z,66.62
2019-01-26T08:27:52.333Z,66.74
2019-01-26T08:30:24.963Z,67.26
2019-01-26T08:32:56.556Z,67.27
2019-01-26T08:35:28.133Z,67.22
2019-01-26T08:37:59.926Z,67.33
2019-01-26T08:40:31.585Z,67.57
2019-01-26T08:43:03.233Z,67.71
2019-01-26T08:45:34.829Z,67.37
2019-01-26T08:48:07.337Z,67.32
2019-01-26T08:50:38.918Z,67.20
2019-01-26T08:53:10.560Z,66.69
2019-01-26T08:55:42.148Z,66.71
2019-01-26T08:58:14.246Z,66.73
2019-01-26T09:00:45.807Z,66.52
2019-01-26T09:03:25.003Z,66.21
2019-01-26T09:06:02.814Z,65.98
2019-01-26T09:08:35.878Z,65.69
2019-01-26T09:11:07.462Z,65.40
2019-01-26T09:13:39.036Z,65.40
2019-01-26T09:16:10.767Z,65.29
2019-01-26T09:18:42.399Z,65.11
2019-01-26T09:21:13.970Z,65.54
2019-01-26T09:23:45.941Z,65.27
2019-01-26T09:26:17.521Z,65.53
2019-01-26T09:28:49.190Z,65.11
2019-01-26T09:31:20.821Z,64.91
2019-01-26T09:33:52.450Z,64.69
2019-01-26T09:36:24.038Z,64.21
2019-01-26T09:38:55.627Z,64.09
2019-01-26T09:41:27.865Z,64.17
2019-01-26T09:43:59.449Z,64.20
2019-01-26T09:46:31.054Z,64.26
2019-01-26T09:49:03.585Z,63.94
2019-01-26T09:51:35.351Z,64.13
2019-01-26T09:54:06.918Z,64.00
2019-01-26T09:56:38.497Z,63.80
2019-01-26T09:59:10.083Z,63.83
2019-01-26T10:01:41.685Z,63.51
2019-01-26T10:04:13.398Z,63.75
2019-01-26T10:06:44.986Z,63.93
2019-01-26T10:09:16.588Z,64.02
2019-01-26T10:11:48.256Z,63.60
2019-01-26T10:14:19.846Z,63.60
2019-01-26T10:16:54.507Z,63.58
2019-01-26T10:19:26.430Z,63.64
2019-01-26T10:21:58.103Z,63.26
2019-01-26T10:24:29.684Z,63.13
2019-01-26T10:27:01.349Z,63.27
2019-01-26T10:29:32.940Z,63.32
2019-01-26T10:32:05.109Z,63.36
2019-01-26T10:34:36.865Z,63.51
2019-01-26T10:37:10.084Z,63.70
2019-01-26T10:39:41.739Z,64.67
2019-01-26T10:42:15.018Z,63.64
2019-01-26T10:44:49.276Z,65.94
2019-01-26T10:47:21.205Z,65.17
2019-01-26T10:49:52.816Z,63.80
2019-01-26T10:52:24.376Z,64.40
2019-01-26T10:54:55.968Z,64.62
2019-01-26T10:57:27.558Z,65.24
2019-01-26T10:59:59.127Z,64.32
2019-01-26T11:02:30.723Z,64.36
2019-01-26T11:05:02.429Z,65.11
2019-01-26T11:07:34.001Z,65.49
2019-01-26T11:10:10.788Z,64.36
2019-01-26T11:12:42.474Z,64.99
2019-01-26T11:15:15.085Z,64.98
2019-01-26T11:17:46.753Z,64.96
2019-01-26T11:20:18.360Z,64.08
2019-01-26T11:22:50.032Z,64.23
2019-01-26T11:25:21.857Z,65.80
2019-01-26T11:27:53.410Z,65.54
2019-01-26T11:30:27.145Z,66.58
2019-01-26T11:32:58.844Z,66.97
2019-01-26T11:35:30.557Z,66.55
2019-01-26T11:38:02.138Z,65.39
2019-01-26T11:40:33.764Z,64.74
2019-01-26T11:43:05.346Z,64.24
2019-01-26T11:45:43.183Z,63.96
2019-01-26T11:48:28.519Z,63.79
2019-01-26T11:51:04.735Z,63.37
2019-01-26T11:53:36.325Z,63.77
2019-01-26T11:56:25.820Z,64.06
2019-01-26T11:58:57.417Z,64.05
2019-01-26T12:01:44.660Z,64.14
2019-01-26T12:04:17.883Z,64.38
2019-01-26T12:06:51.162Z,64.23
2019-01-26T12:09:22.826Z,64.51
2019-01-26T12:11:54.474Z,64.64
2019-01-26T12:14:26.250Z,64.09
2019-01-26T12:16:57.928Z,64.17
2019-01-26T12:19:29.548Z,63.87
2019-01-26T12:22:01.147Z,64.11
2019-01-26T12:24:32.766Z,64.41
2019-01-26T12:27:04.446Z,64.40
2019-01-26T12:29:36.344Z,63.67
2019-01-26T12:32:07.904Z,63.74
2019-01-26T12:34:39.596Z,64.05
2019-01-26T12:37:11.192Z,65.61
2019-01-26T12:39:42.809Z,64.96
2019-01-26T12:42:14.425Z,64.33
2019-01-26T12:44:46.250Z,63.21
2019-01-26T12:47:17.926Z,63.04
2019-01-26T12:49:49.531Z,62.77
2019-01-26T12:52:21.259Z,62.83
2019-01-26T12:54:52.850Z,62.45
2019-01-26T12:57:24.573Z,62.61
2019-01-26T12:59:56.301Z,62.92
2019-01-26T13:02:27.887Z,62.67
2019-01-26T13:04:59.754Z,63.55
2019-01-26T13:07:31.365Z,62.89
2019-01-26T13:10:05.346Z,62.47
2019-01-26T13:12:37.010Z,62.30
2019-01-26T13:15:15.217Z,62.70
2019-01-26T13:17:42.312Z,62.40
2019-01-26T13:20:17.351Z,62.10
2019-01-26T13:22:48.940Z,61.82
2019-01-26T13:25:20.689Z,62.13
2019-01-26T13:27:52.367Z,61.94
2019-01-26T13:30:25.573Z,62.60
2019-01-26T13:32:58.085Z,62.62
2019-01-26T13:35:29.709Z,63.73
2019-01-26T13:38:01.306Z,65.29
2019-01-26T13:40:36.374Z,66.12
2019-01-26T13:43:07.967Z,66.37
2019-01-26T13:45:40.736Z,66.57
2019-01-26T13:48:12.317Z,67.80
2019-01-26T13:50:43.917Z,67.95
2019-01-26T13:53:15.528Z,68.02
2019-01-26T13:55:47.555Z,68.12
2019-01-26T13:58:19.844Z,68.31
2019-01-26T14:00:51.505Z,67.54
2019-01-26T14:03:23.113Z,67.57
2019-01-26T14:05:55.033Z,68.93
2019-01-26T14:08:26.694Z,69.77
2019-01-26T14:10:59.204Z,68.68
2019-01-26T14:13:30.811Z,68.50
2019-01-26T14:16:02.389Z,68.55
2019-01-26T14:18:34.021Z,69.55
2019-01-26T14:21:05.995Z,69.72
2019-01-26T14:23:42.717Z,70.25
2019-01-26T14:26:14.570Z,70.27
2019-01-26T14:28:46.199Z,69.66
2019-01-26T14:31:18.033Z,69.08
2019-01-26T14:33:50.624Z,68.32
2019-01-26T14:36:22.369Z,68.29
2019-01-26T14:38:53.973Z,69.38
2019-01-26T14:41:26.349Z,70.28
2019-01-26T14:43:59.590Z,68.84
2019-01-26T14:46:31.311Z,69.44
2019-01-26T14:49:03.062Z,68.65
2019-01-26T14:51:34.761Z,67.77
2019-01-26T14:54:06.775Z,67.01
2019-01-26T14:56:41.741Z,66.53
2019-01-26T14:59:13.337Z,66.46
2019-01-26T15:01:46.383Z,67.37
2019-01-26T15:04:18.050Z,68.87
2019-01-26T15:06:49.710Z,67.97
2019-01-26T15:09:21.880Z,67.53
2019-01-26T15:11:56.383Z,67.49
2019-01-26T15:14:28.272Z,67.50
2019-01-26T15:17:05.073Z,68.44
2019-01-26T15:19:41.371Z,68.76
2019-01-26T15:22:13.118Z,69.57
2019-01-26T15:24:44.683Z,68.90
2019-01-26T15:27:16.531Z,68.62
2019-01-26T15:29:48.198Z,68.08
2019-01-26T15:32:19.802Z,67.72
2019-01-26T15:34:51.395Z,67.20
2019-01-26T15:37:24.124Z,66.79
2019-01-26T15:39:55.800Z,66.90
2019-01-26T15:42:27.474Z,66.87
2019-01-26T15:44:59.079Z,66.70
2019-01-26T15:47:30.743Z,66.75
2019-01-26T15:50:02.327Z,66.57
2019-01-26T15:52:34.043Z,66.67
2019-01-26T15:55:10.568Z,66.56
2019-01-26T15:57:42.223Z,66.60
2019-01-26T16:00:18.489Z,66.74
2019-01-26T16:02:50.283Z,66.79
2019-01-26T16:05:21.924Z,66.65
2019-01-26T16:07:53.602Z,66.72
2019-01-26T16:10:25.919Z,66.90
2019-01-26T16:12:57.649Z,66.96
2019-01-26T16:15:37.911Z,66.96
2019-01-26T16:18:12.537Z,67.20
2019-01-26T16:20:44.231Z,67.24
2019-01-26T16:23:16.635Z,66.99
2019-01-26T16:25:48.528Z,66.86
2019-01-26T16:28:20.214Z,66.90
2019-01-26T16:30:51.882Z,66.97
2019-01-26T16:33:23.449Z,67.13
2019-01-26T16:35:55.041Z,67.09
2019-01-26T16:38:26.650Z,66.96
2019-01-26T16:40:58.339Z,67.67
2019-01-26T16:43:29.976Z,68.07
2019-01-26T16:46:01.651Z,67.67
2019-01-26T16:48:33.243Z,67.52
2019-01-26T16:51:05.062Z,67.30
2019-01-26T16:53:36.679Z,67.43
2019-01-26T16:56:08.288Z,67.41
2019-01-26T16:58:40.025Z,67.45
2019-01-26T17:01:12.706Z,67.67
2019-01-26T17:03:44.478Z,67.82
2019-01-26T17:06:16.281Z,67.90
2019-01-26T17:08:48.242Z,67.91
2019-01-26T17:11:21.464Z,68.09
2019-01-26T17:13:53.129Z,68.21
2019-01-26T17:16:25.461Z,68.47
2019-01-26T17:18:57.067Z,68.61
2019-01-26T17:21:28.847Z,68.78
2019-01-26T17:24:00.508Z,68.89
2019-01-26T17:26:32.172Z,69.16
2019-01-26T17:29:03.850Z,69.18
2019-01-26T17:31:35.657Z,69.84
2019-01-26T17:34:07.321Z,69.71
2019-01-26T17:36:42.329Z,69.49
2019-01-26T17:39:15.123Z,69.51
2019-01-26T17:41:49.663Z,69.45
2019-01-26T17:44:21.444Z,69.52
2019-01-26T17:46:53.496Z,69.56
2019-01-26T17:49:25.883Z,69.49
2019-01-26T17:51:57.504Z,69.48
2019-01-26T17:54:33.397Z,69.45
2019-01-26T17:57:05.295Z,69.42
2019-01-26T17:59:38.454Z,69.57
2019-01-26T18:02:11.733Z,69.53
2019-01-26T18:04:45.366Z,69.75
2019-01-26T18:07:19.446Z,69.87
2019-01-26T18:09:54.442Z,69.95
2019-01-26T18:12:27.116Z,69.83
2019-01-26T18:15:00.449Z,69.94
2019-01-26T18:17:35.778Z,70.40
2019-01-26T18:20:12.663Z,70.94
2019-01-26T18:22:50.451Z,71.16
2019-01-26T18:25:28.106Z,71.05
2019-01-26T18:27:59.754Z,71.41
2019-01-26T18:30:38.721Z,71.71
2019-01-26T18:33:15.425Z,71.75
2019-01-26T18:35:48.584Z,72.11
2019-01-26T18:38:24.474Z,72.44
2019-01-26T18:41:05.023Z,73.02
2019-01-26T18:43:42.209Z,73.29
2019-01-26T18:46:14.356Z,73.20
2019-01-26T18:48:51.132Z,72.86
2019-01-26T18:51:24.446Z,72.95
2019-01-26T18:54:06.932Z,73.14
2019-01-26T18:56:40.096Z,72.87
2019-01-26T18:59:21.009Z,72.98
2019-01-26T19:01:58.798Z,72.76
2019-01-26T19:04:37.187Z,72.46
2019-01-26T19:07:10.538Z,72.33
2019-01-26T19:09:43.867Z,72.36
2019-01-26T19:12:16.463Z,72.52
2019-01-26T19:15:09.557Z,72.56
2019-01-26T19:17:41.802Z,72.99
2019-01-26T19:20:20.866Z,73.05
2019-01-26T19:22:55.578Z,72.60
2019-01-26T19:25:43.201Z,72.53
2019-01-26T19:28:27.434Z,72.83
2019-01-26T19:34:02.917Z,73.12
2019-01-26T19:36:41.691Z,73.29
2019-01-26T19:39:20.970Z,73.04
2019-01-26T19:41:55.820Z,72.91
2019-01-26T19:44:33.714Z,72.66
2019-01-26T19:47:05.321Z,72.46
2019-01-26T19:49:36.928Z,72.89
2019-01-26T19:52:08.593Z,73.40
2019-01-26T19:54:40.173Z,73.21
2019-01-26T19:57:19.507Z,73.22
2019-01-26T19:59:51.178Z,73.37
2019-01-26T20:02:25.028Z,73.46
2019-01-26T20:04:56.610Z,73.58
2019-01-26T20:07:28.480Z,73.56
2019-01-26T20:10:02.135Z,73.75
2019-01-26T20:12:33.798Z,74.14
2019-01-26T20:15:23.517Z,74.39
2019-01-26T20:17:55.223Z,74.23
2019-01-26T20:20:39.497Z,74.02
2019-01-26T20:23:11.087Z,73.73
2019-01-26T20:25:42.745Z,73.99
2019-01-26T20:28:17.000Z,74.24
2019-01-26T20:30:48.640Z,74.44
2019-01-26T20:33:23.530Z,74.46
2019-01-26T20:36:01.009Z,74.49
2019-01-26T20:38:36.470Z,74.04
2019-01-26T20:41:10.861Z,73.87
2019-01-26T20:43:42.533Z,73.52
2019-01-26T20:46:14.274Z,73.87
2019-01-26T20:48:47.534Z,73.36
2019-01-26T20:51:25.014Z,72.90
2019-01-26T20:53:55.786Z,72.72
2019-01-26T20:56:27.403Z,72.62
2019-01-26T20:59:03.239Z,72.31
2019-01-26T21:01:36.464Z,72.53
2019-01-26T21:04:08.605Z,73.11
2019-01-26T21:06:40.227Z,73.57
2019-01-26T21:09:11.890Z,73.70
2019-01-26T21:11:43.678Z,74.13
2019-01-26T21:14:17.859Z,74.63
2019-01-26T21:16:49.529Z,74.58
2019-01-26T21:19:24.696Z,74.47
2019-01-26T21:21:56.707Z,74.75
2019-01-26T21:24:28.978Z,75.06
2019-01-26T21:27:00.666Z,74.55
2019-01-26T21:29:32.365Z,74.47
2019-01-26T21:32:05.644Z,74.72
2019-01-26T21:34:37.884Z,74.86
2019-01-26T21:37:09.710Z,75.04
2019-01-26T21:39:41.499Z,74.79
2019-01-26T21:42:21.250Z,74.46
2019-01-26T21:44:56.021Z,74.98
2019-01-26T21:47:27.820Z,75.16
2019-01-26T21:49:59.520Z,75.05
2019-01-26T21:52:31.274Z,74.90
2019-01-26T21:55:03.114Z,74.65
2019-01-26T21:57:34.879Z,74.56
2019-01-26T22:00:11.853Z,74.79
2019-01-26T22:02:43.684Z,75.16
2019-01-26T22:05:15.779Z,75.56
2019-01-26T22:07:51.427Z,75.34
2019-01-26T22:10:28.632Z,75.66
2019-01-26T22:13:00.499Z,75.41
2019-01-26T22:15:33.756Z,75.42
2019-01-26T22:18:07.038Z,75.46
2019-01-26T22:20:38.774Z,75.34
2019-01-26T22:23:10.639Z,74.95
2019-01-26T22:25:42.256Z,74.56
2019-01-26T22:28:13.934Z,74.12
2019-01-26T22:30:45.873Z,74.24
2019-01-26T22:33:20.054Z,74.45
2019-01-26T22:35:51.788Z,74.93
2019-01-26T22:38:23.612Z,75.11
2019-01-26T22:40:55.539Z,75.37
2019-01-26T22:43:27.375Z,75.22
2019-01-26T22:45:59.054Z,75.57
2019-01-26T22:48:32.541Z,75.79
2019-01-26T22:51:04.325Z,75.39
2019-01-26T22:53:36.246Z,75.51
2019-01-26T22:56:08.224Z,75.66
2019-01-26T22:58:40.277Z,75.73
2019-01-26T23:01:14.875Z,75.54
2019-01-26T23:03:51.387Z,75.27
2019-01-26T23:06:38.311Z,75.16
2019-01-26T23:09:22.258Z,75.72
2019-01-26T23:12:13.965Z,75.84
2019-01-26T23:15:31.290Z,75.79
2019-01-26T23:18:25.948Z,76.24
2019-01-26T23:21:28.643Z,76.38
2019-01-26T23:24:26.282Z,76.25
2019-01-26T23:27:20.319Z,76.35
2019-01-26T23:30:16.563Z,76.63
2019-01-26T23:32:48.140Z,76.44
2019-01-26T23:35:19.998Z,77.03
2019-01-26T23:37:51.627Z,76.99
2019-01-26T23:40:23.241Z,76.94
2019-01-26T23:42:54.840Z,76.94
2019-01-26T23:45:26.427Z,76.86
2019-01-26T23:47:59.135Z,76.85
2019-01-26T23:50:30.825Z,76.33
2019-01-26T23:53:02.642Z,75.89
2019-01-26T23:55:34.236Z,75.62
2019-01-26T23:58:07.341Z,76.00
